Time;durP1;ratioP1;P1;durP2;ratioP2;P2;SDS_P1;SDS_P2;PMS_P1;PMS_P2;Temp;Humidity;BMP_temperature;BMP_pressure;BME280_temperature;BME280_humidity;BME280_pressure;Samples;Min_cycle;Max_cycle;Signal;HPM_P1;HPM_P2
2022/07/08 00:01:05;;;;;;;17.90;4.38;;;;;;;12.41;79.38;102937.16;5113213;28;20463;-47
2022/07/08 00:03:30;;;;;;;12.75;3.40;;;;;;;12.48;79.75;102933.22;5113066;28;20040;-47
2022/07/08 00:05:56;;;;;;;16.63;3.85;;;;;;;12.57;80.08;102938.03;5112587;28;20031;-47
2022/07/08 00:08:22;;;;;;;17.88;3.83;;;;;;;12.58;80.70;102940.69;5112979;28;20033;-46
2022/07/08 00:10:47;;;;;;;18.75;3.97;;;;;;;12.59;80.52;102932.13;5113121;28;20374;-45
2022/07/08 00:13:13;;;;;;;19.70;3.92;;;;;;;12.62;80.87;102941.75;5112369;28;20019;-45
2022/07/08 00:15:38;;;;;;;23.10;3.92;;;;;;;12.72;80.36;102941.44;5113235;28;20050;-46
2022/07/08 00:18:03;;;;;;;18.48;4.57;;;;;;;12.76;80.10;102940.81;5113008;28;20035;-47
2022/07/08 00:20:29;;;;;;;21.00;4.90;;;;;;;12.77;80.65;102937.41;5112183;28;20038;-46
2022/07/08 00:22:54;;;;;;;27.67;4.82;;;;;;;12.79;80.81;102948.72;5113116;28;20463;-48
2022/07/08 00:25:20;;;;;;;17.33;5.15;;;;;;;12.86;81.10;102937.03;5113131;28;20036;-47
2022/07/08 00:27:45;;;;;;;24.65;5.55;;;;;;;12.90;81.30;102940.66;5111983;28;20408;-47
2022/07/08 00:30:12;;;;;;;22.42;5.45;;;;;;;12.88;81.54;102935.38;5113134;28;20110;-47
2022/07/08 00:32:37;;;;;;;25.20;5.55;;;;;;;12.87;81.92;102935.31;5112954;28;20031;-48
2022/07/08 00:35:03;;;;;;;24.60;5.82;;;;;;;12.79;82.53;102935.78;5111899;28;20077;-45
2022/07/08 00:37:28;;;;;;;18.48;5.28;;;;;;;12.65;82.34;102932.47;5112840;28;20046;-47
2022/07/08 00:39:53;;;;;;;17.10;4.88;;;;;;;12.60;82.76;102939.09;5112991;28;20034;-46
2022/07/08 00:42:18;;;;;;;20.08;5.15;;;;;;;12.52;82.78;102936.09;5112009;28;20031;-46
2022/07/08 00:44:44;;;;;;;27.30;5.55;;;;;;;12.47;83.04;102947.88;5112923;28;20460;-47
2022/07/08 00:47:09;;;;;;;21.58;5.95;;;;;;;12.46;83.26;102945.16;5112761;28;20020;-46
2022/07/08 00:49:34;;;;;;;19.35;4.72;;;;;;;12.37;83.21;102943.00;5112003;28;20061;-45
2022/07/08 00:52:00;;;;;;;17.58;5.32;;;;;;;12.25;83.76;102944.88;5112553;28;20023;-46
2022/07/08 00:54:26;;;;;;;21.13;4.50;;;;;;;12.11;84.13;102949.25;5112386;28;20073;-46
2022/07/08 00:56:52;;;;;;;19.48;5.80;;;;;;;12.07;84.87;102949.88;5112432;28;20111;-46
2022/07/08 00:59:19;;;;;;;24.25;5.07;;;;;;;12.05;85.51;102946.34;5112382;28;20391;-46
2022/07/08 01:01:44;;;;;;;20.60;6.00;;;;;;;11.99;85.45;102952.94;5111907;28;20036;-47
2022/07/08 01:04:10;;;;;;;20.42;5.13;;;;;;;12.01;85.93;102947.84;5112298;28;20048;-48
2022/07/08 01:06:35;;;;;;;22.58;5.68;;;;;;;11.95;86.07;102948.38;5114031;28;20019;-47
2022/07/08 01:09:01;;;;;;;23.83;6.03;;;;;;;11.91;86.11;102953.25;5115657;28;20027;-44
2022/07/08 01:11:26;;;;;;;25.80;5.40;;;;;;;11.86;85.73;102951.31;5116447;28;20031;-46
2022/07/08 01:13:52;;;;;;;19.85;5.53;;;;;;;11.83;86.09;102952.81;5116553;28;20035;-44
2022/07/08 01:16:18;;;;;;;24.85;5.70;;;;;;;11.77;86.09;102945.56;5115464;28;20387;-44
2022/07/08 01:18:43;;;;;;;16.70;5.82;;;;;;;11.65;86.06;102950.91;5116165;28;20387;-46
2022/07/08 01:21:08;;;;;;;19.60;5.55;;;;;;;11.56;86.38;102954.66;5115936;28;20463;-46
2022/07/08 01:23:34;;;;;;;23.15;6.43;;;;;;;11.48;86.33;102952.50;5115443;28;20039;-46
2022/07/08 01:26:05;;;;;;;19.35;6.47;;;;;;;11.40;86.80;102955.44;5116136;28;20074;-43
2022/07/08 01:28:30;;;;;;;22.52;6.70;;;;;;;11.38;87.95;102944.13;5116213;28;20042;-47
2022/07/08 01:30:55;;;;;;;25.58;6.00;;;;;;;11.34;88.21;102943.06;5115273;28;20015;-47
2022/07/08 01:33:21;;;;;;;20.23;6.00;;;;;;;11.17;87.53;102953.25;5115815;28;20024;-46
2022/07/08 01:35:46;;;;;;;26.50;6.55;;;;;;;11.08;87.53;102957.84;5115780;28;20016;-46
2022/07/08 01:38:12;;;;;;;16.63;6.10;;;;;;;10.98;87.98;102953.78;5114842;28;20019;-48
2022/07/08 01:40:37;;;;;;;18.77;6.45;;;;;;;10.90;88.82;102946.38;5115897;28;20031;-47
2022/07/08 01:43:02;;;;;;;21.63;7.20;;;;;;;10.80;89.05;102945.81;5115660;28;20027;-46
2022/07/08 01:45:28;;;;;;;17.60;6.45;;;;;;;10.81;89.98;102945.00;5114926;28;20441;-46
2022/07/08 01:47:53;;;;;;;26.15;7.50;;;;;;;10.77;90.32;102943.03;5115730;28;20031;-46
2022/07/08 01:50:18;;;;;;;23.77;6.65;;;;;;;10.78;90.45;102950.00;5115287;28;20023;-45
2022/07/08 01:52:44;;;;;;;21.33;6.85;;;;;;;10.73;90.30;102945.31;5114731;28;20020;-47
2022/07/08 01:55:09;;;;;;;22.25;6.60;;;;;;;10.81;91.72;102942.44;5115618;28;20478;-46
2022/07/08 01:57:35;;;;;;;19.38;6.45;;;;;;;10.71;90.23;102932.34;5115334;28;20444;-47
2022/07/08 02:00:00;;;;;;;19.10;6.70;;;;;;;10.66;89.97;102938.91;5114811;28;20035;-47
2022/07/08 02:02:26;;;;;;;24.65;6.57;;;;;;;10.54;90.33;102933.84;5115191;28;20046;-46
2022/07/08 02:04:51;;;;;;;16.83;6.82;;;;;;;10.45;91.04;102936.75;5115132;28;20034;-46
2022/07/08 02:07:16;;;;;;;18.98;6.90;;;;;;;10.37;91.47;102938.81;5114555;28;20027;-47
2022/07/08 02:09:42;;;;;;;27.38;7.53;;;;;;;10.31;91.80;102945.25;5115322;28;20475;-46
2022/07/08 02:12:21;;;;;;;23.65;7.30;;;;;;;10.28;92.33;102939.91;5114428;28;20023;-46
2022/07/08 02:15:03;;;;;;;16.05;6.10;;;;;;;10.28;92.77;102945.94;5115168;28;20024;-46
2022/07/08 02:17:34;;;;;;;20.88;6.38;;;;;;;10.25;92.32;102953.50;5114821;28;20052;-47
2022/07/08 02:20:00;;;;;;;24.63;7.70;;;;;;;10.27;92.70;102949.31;5114033;28;20489;-46
2022/07/08 02:22:26;;;;;;;23.75;7.80;;;;;;;10.19;93.16;102946.22;5115156;28;20024;-48
2022/07/08 02:24:52;;;;;;;19.83;6.70;;;;;;;10.15;93.06;102943.38;5115119;28;20046;-47
2022/07/08 02:27:17;;;;;;;25.00;7.20;;;;;;;10.18;93.53;102947.03;5114090;28;20054;-47
2022/07/08 02:29:43;;;;;;;26.25;7.28;;;;;;;10.19;93.58;102946.22;5114725;28;20024;-47
2022/07/08 02:32:08;;;;;;;21.67;7.70;;;;;;;10.18;93.34;102947.03;5114593;28;20104;-46
2022/07/08 02:34:34;;;;;;;22.05;7.88;;;;;;;10.28;94.65;102945.06;5114185;28;20109;-47
2022/07/08 02:36:59;;;;;;;24.40;8.20;;;;;;;10.35;95.18;102947.22;5114902;28;20031;-43
2022/07/08 02:39:24;;;;;;;26.90;7.75;;;;;;;10.41;95.25;102951.94;5114639;28;20036;-46
2022/07/08 02:41:50;;;;;;;21.38;7.28;;;;;;;10.42;94.46;102952.03;5113874;28;20028;-47
2022/07/08 02:44:16;;;;;;;23.30;7.90;;;;;;;10.42;94.58;102945.97;5114474;28;20020;-48
2022/07/08 02:46:41;;;;;;;20.05;7.32;;;;;;;10.38;94.36;102952.63;5114102;28;20097;-47
2022/07/08 02:49:08;;;;;;;22.80;7.45;;;;;;;10.35;94.33;102953.31;5113997;28;20062;-47
2022/07/08 02:51:34;;;;;;;24.35;8.50;;;;;;;10.32;94.38;102953.06;5114616;28;20031;-47
2022/07/08 02:53:59;;;;;;;22.83;7.38;;;;;;;10.32;94.13;102947.03;5114239;28;20016;-43
2022/07/08 02:56:25;;;;;;;19.35;7.28;;;;;;;10.32;94.29;102947.03;5113832;28;20012;-47
2022/07/08 02:58:50;;;;;;;17.20;7.13;;;;;;;10.31;94.37;102940.09;5114239;28;20542;-47
2022/07/08 03:01:15;;;;;;;23.65;7.78;;;;;;;10.24;93.89;102948.22;5113281;28;20023;-47
2022/07/08 03:03:40;;;;;;;23.40;7.78;;;;;;;10.15;94.34;102951.97;5113989;28;20447;-46
2022/07/08 03:06:06;;;;;;;28.25;8.30;;;;;;;10.14;94.73;102957.03;5113981;28;20023;-46
2022/07/08 03:08:31;;;;;;;30.73;8.75;;;;;;;10.21;95.66;102964.38;5113317;28;20035;-46
2022/07/08 03:10:56;;;;;;;26.27;8.15;;;;;;;10.22;96.15;102955.84;5113943;28;20020;-47
2022/07/08 03:13:22;;;;;;;26.20;8.40;;;;;;;10.29;96.21;102957.13;5113941;28;20024;-42
2022/07/08 03:15:48;;;;;;;26.35;8.55;;;;;;;10.30;95.68;102953.75;5113068;28;20023;-47
2022/07/08 03:18:13;;;;;;;28.50;7.97;;;;;;;10.26;95.51;102957.81;5113496;28;20031;-46
2022/07/08 03:20:38;;;;;;;21.63;7.72;;;;;;;10.16;95.11;102951.19;5113842;28;20015;-46
2022/07/08 03:23:04;;;;;;;22.08;8.48;;;;;;;10.20;95.34;102950.59;5112903;28;20096;-47
2022/07/08 03:25:29;;;;;;;24.98;7.82;;;;;;;10.21;95.90;102954.97;5113724;28;20038;-44
2022/07/08 03:27:55;;;;;;;28.35;9.02;;;;;;;10.26;96.70;102959.53;5113669;28;20024;-47
2022/07/08 03:30:21;;;;;;;32.55;9.23;;;;;;;10.29;96.86;102959.72;5112116;28;20027;-44
2022/07/08 03:32:46;;;;;;;26.90;8.57;;;;;;;10.32;96.83;102962.50;5113544;28;20502;-43
2022/07/08 03:35:11;;;;;;;34.75;9.07;;;;;;;10.34;96.83;102960.91;5113658;28;20366;-46
2022/07/08 03:37:41;;;;;;;30.15;8.57;;;;;;;10.33;96.13;102961.72;5112772;28;20425;-47
2022/07/08 03:42:53;;;;;;;25.08;9.05;;;;;;;10.30;95.83;102970.16;5113527;28;20043;-46
2022/07/08 03:45:18;;;;;;;26.13;8.15;;;;;;;10.28;95.88;102965.69;5112972;28;20024;-46
2022/07/08 03:47:43;;;;;;;21.83;8.85;;;;;;;10.28;95.86;102961.41;5113307;28;20035;-47
2022/07/08 03:50:08;;;;;;;19.35;7.78;;;;;;;10.23;95.19;102965.38;5113236;28;20111;-47
2022/07/08 03:52:34;;;;;;;23.85;7.55;;;;;;;10.20;95.30;102971.22;5112698;28;20027;-44
2022/07/08 03:54:59;;;;;;;22.58;8.75;;;;;;;10.27;95.71;102966.47;5113269;28;20024;-44
2022/07/08 03:57:25;;;;;;;24.05;8.00;;;;;;;10.23;95.59;102965.38;5112911;28;20027;-44
2022/07/08 03:59:50;;;;;;;26.48;8.80;;;;;;;10.28;96.25;102965.69;5112774;28;20038;-45
2022/07/08 04:02:16;;;;;;;26.08;9.57;;;;;;;10.24;96.04;102956.84;5113055;28;20482;-47
2022/07/08 04:04:41;;;;;;;23.13;8.98;;;;;;;10.22;96.01;102966.16;5112523;28;20383;-46
2022/07/08 04:07:07;;;;;;;22.95;7.93;;;;;;;10.20;95.23;102963.47;5113137;28;20044;-47
2022/07/08 04:09:32;;;;;;;21.58;7.75;;;;;;;10.19;95.05;102964.28;5113155;28;20023;-47
2022/07/08 04:11:58;;;;;;;24.98;7.57;;;;;;;10.17;95.34;102964.97;5112377;28;20068;-48
2022/07/08 04:14:23;;;;;;;20.73;7.53;;;;;;;10.09;95.31;102969.63;5112770;28;20033;-44
2022/07/08 04:16:48;;;;;;;23.42;8.38;;;;;;;10.15;96.01;102964.88;5113330;28;20032;-47
2022/07/08 04:19:14;;;;;;;20.40;7.68;;;;;;;10.16;96.46;102964.09;5112079;28;20040;-46
2022/07/08 04:21:40;;;;;;;29.35;9.45;;;;;;;10.25;96.80;102971.53;5112951;28;20394;-46
2022/07/08 04:24:05;;;;;;;22.90;9.13;;;;;;;10.32;97.14;102968.53;5112981;28;20471;-47
2022/07/08 04:26:33;;;;;;;29.40;8.75;;;;;;;10.36;97.04;102967.09;5112065;28;20110;-46
2022/07/08 04:28:59;;;;;;;22.27;9.13;;;;;;;10.33;96.54;102966.88;5113239;28;20081;-46
2022/07/08 04:31:26;;;;;;;23.30;8.68;;;;;;;10.34;96.97;102968.63;5112983;28;20020;-46
2022/07/08 04:33:53;;;;;;;25.38;8.43;;;;;;;10.31;96.92;102971.91;5112255;28;20055;-47
2022/07/08 04:36:18;;;;;;;27.08;9.75;;;;;;;10.29;96.90;102973.50;5112928;28;20028;-46
2022/07/08 04:38:43;;;;;;;27.45;9.35;;;;;;;10.34;97.41;102968.63;5112535;28;20024;-45
2022/07/08 04:41:09;;;;;;;27.00;10.02;;;;;;;10.42;97.80;102977.81;5114703;28;20077;-47
2022/07/08 04:43:34;;;;;;;31.73;11.82;;;;;;;10.54;97.86;102981.16;5116812;28;20040;-46
2022/07/08 04:45:59;;;;;;;35.50;10.88;;;;;;;10.63;98.31;102985.13;5116676;28;20382;-44
2022/07/08 04:48:24;;;;;;;34.70;10.77;;;;;;;10.73;97.47;102987.50;5116112;28;20106;-46
2022/07/08 04:50:50;;;;;;;35.50;11.32;;;;;;;10.86;97.24;102989.16;5116918;28;20466;-48
2022/07/08 04:53:15;;;;;;;35.20;11.32;;;;;;;10.97;97.19;102994.97;5116417;28;20024;-45
2022/07/08 04:55:40;;;;;;;32.70;11.27;;;;;;;10.99;96.71;103001.16;5115944;28;20020;-47
2022/07/08 04:58:06;;;;;;;36.95;11.57;;;;;;;11.06;95.93;103007.56;5116672;28;20459;-45
2022/07/08 05:00:32;;;;;;;29.90;10.98;;;;;;;11.11;96.40;103006.19;5116328;28;20024;-46
2022/07/08 05:02:58;;;;;;;26.88;11.48;;;;;;;11.20;95.96;103001.56;5115888;28;20051;-46
2022/07/08 05:05:23;;;;;;;25.52;10.43;;;;;;;11.23;95.83;103012.06;5116401;28;20039;-46
2022/07/08 05:07:49;;;;;;;42.47;11.35;;;;;;;11.34;95.20;103012.75;5115773;28;20027;-44
2022/07/08 05:10:16;;;;;;;26.73;10.60;;;;;;;11.36;95.51;103016.31;5116285;28;20144;-46
2022/07/08 05:12:41;;;;;;;26.27;10.00;;;;;;;11.45;94.62;103022.06;5116209;28;20030;-47
2022/07/08 05:15:07;;;;;;;26.98;9.63;;;;;;;11.51;94.38;103019.81;5115567;28;20134;-47
2022/07/08 05:17:32;;;;;;;29.58;9.85;;;;;;;11.58;94.62;103021.09;5116445;28;20460;-46
2022/07/08 05:19:58;;;;;;;30.73;10.00;;;;;;;11.62;95.60;103025.66;5116215;28;20445;-47
2022/07/08 05:22:24;;;;;;;28.45;10.65;;;;;;;11.71;95.12;103027.91;5115220;28;20023;-47
2022/07/08 05:24:49;;;;;;;35.83;10.00;;;;;;;11.76;94.73;103026.50;5116136;28;20024;-47
2022/07/08 05:27:14;;;;;;;36.17;11.43;;;;;;;11.81;93.69;103022.50;5116129;28;20442;-45
2022/07/08 05:29:39;;;;;;;33.15;11.15;;;;;;;11.92;95.04;103029.97;5115273;28;20019;-46
2022/07/08 05:32:05;;;;;;;25.88;10.07;;;;;;;11.97;94.71;103036.34;5115990;28;20450;-47
2022/07/08 05:34:31;;;;;;;32.65;11.20;;;;;;;12.04;94.94;103038.47;5116015;28;20028;-45
2022/07/08 05:36:56;;;;;;;27.63;10.50;;;;;;;12.13;93.81;103044.19;5115124;28;20026;-47
2022/07/08 05:39:21;;;;;;;30.15;11.13;;;;;;;12.19;94.55;103044.53;5115807;28;20035;-48
2022/07/08 05:41:47;;;;;;;38.92;10.77;;;;;;;12.26;94.42;103039.72;5115714;28;20067;-46
2022/07/08 05:44:12;;;;;;;25.45;9.05;;;;;;;12.30;92.56;103034.84;5114993;28;20076;-46
2022/07/08 05:46:37;;;;;;;33.03;9.23;;;;;;;12.40;93.48;103040.53;5115614;28;20038;-47
2022/07/08 05:49:03;;;;;;;33.88;8.15;;;;;;;12.46;92.65;103044.34;5115359;28;20375;-47
2022/07/08 05:51:28;;;;;;;27.35;7.50;;;;;;;12.52;92.55;103044.72;5114570;28;20023;-47
2022/07/08 05:53:55;;;;;;;29.38;6.30;;;;;;;12.61;91.37;103046.91;5115332;28;20031;-47
2022/07/08 05:56:21;;;;;;;23.23;6.20;;;;;;;12.68;90.44;103045.59;5115144;28;20085;-46
2022/07/08 05:58:46;;;;;;;23.33;7.03;;;;;;;12.77;90.47;103046.09;5114933;28;20020;-46
2022/07/08 06:01:11;;;;;;;24.88;6.15;;;;;;;12.83;89.51;103050.69;5115362;28;20024;-46
2022/07/08 06:03:37;;;;;;;22.65;6.05;;;;;;;12.91;89.04;103045.94;5114935;28;20479;-47
2022/07/08 06:06:02;;;;;;;28.67;5.78;;;;;;;12.98;88.71;103051.56;5114848;28;20024;-47
2022/07/08 06:08:27;;;;;;;29.98;6.93;;;;;;;13.07;89.63;103051.19;5115238;28;20024;-47
2022/07/08 06:10:53;;;;;;;30.58;5.93;;;;;;;13.15;89.21;103043.81;5115055;28;20043;-46
2022/07/08 06:13:18;;;;;;;23.88;5.50;;;;;;;13.24;87.95;103053.78;5114686;28;20024;-48
2022/07/08 06:15:43;;;;;;;21.42;5.07;;;;;;;13.30;86.72;103052.41;5115193;28;20069;-47
2022/07/08 06:18:08;;;;;;;21.05;5.05;;;;;;;13.39;88.33;103054.66;5114237;28;20084;-47
2022/07/08 06:20:34;;;;;;;28.10;6.47;;;;;;;13.49;87.93;103056.94;5114804;28;20031;-47
2022/07/08 06:22:59;;;;;;;24.90;5.40;;;;;;;13.57;87.75;103059.91;5114796;28;20503;-44
2022/07/08 06:25:24;;;;;;;27.95;5.40;;;;;;;13.68;87.49;103051.81;5113932;28;20031;-46
2022/07/08 06:27:49;;;;;;;25.95;4.60;;;;;;;13.73;84.83;103058.13;5115017;28;20482;-45
2022/07/08 06:30:15;;;;;;;17.60;4.97;;;;;;;13.82;85.75;103066.38;5114681;28;20066;-47
2022/07/08 06:32:40;;;;;;;16.92;4.25;;;;;;;13.90;85.78;103053.81;5114067;28;20478;-46
2022/07/08 06:35:06;;;;;;;23.55;4.35;;;;;;;13.95;85.00;103053.22;5114990;28;20019;-47
2022/07/08 06:37:31;;;;;;;25.95;5.15;;;;;;;14.03;83.95;103060.53;5114749;28;20055;-46
2022/07/08 06:39:56;;;;;;;30.95;4.68;;;;;;;14.10;84.47;103057.41;5113755;28;20391;-47
2022/07/08 06:42:22;;;;;;;15.88;4.18;;;;;;;14.14;82.95;103059.38;5114499;28;20466;-47
2022/07/08 06:44:47;;;;;;;24.95;4.72;;;;;;;14.22;84.51;103051.97;5114751;28;20024;-48
2022/07/08 06:47:12;;;;;;;22.17;4.10;;;;;;;14.26;81.62;103052.19;5113649;28;20015;-47
2022/07/08 06:49:38;;;;;;;24.67;5.13;;;;;;;14.43;83.50;103057.31;5114520;28;20024;-45
2022/07/08 06:52:04;;;;;;;23.67;5.32;;;;;;;14.56;82.13;103061.41;5114002;28;20020;-45
2022/07/08 06:54:35;;;;;;;25.13;4.53;;;;;;;14.68;82.62;103058.53;5113635;28;20394;-47
2022/07/08 06:57:06;;;;;;;17.80;3.88;;;;;;;14.75;79.93;103065.81;5114131;28;20459;-46
2022/07/08 06:59:32;;;;;;;20.52;3.97;;;;;;;14.78;77.37;103069.47;5113900;28;20097;-44
2022/07/08 07:01:57;;;;;;;18.45;4.30;;;;;;;14.85;79.56;103062.84;5113844;28;20047;-47
2022/07/08 07:04:22;;;;;;;22.75;4.00;;;;;;;14.91;78.73;103062.22;5112724;28;20123;-44
2022/07/08 07:06:47;;;;;;;25.85;4.03;;;;;;;14.95;77.19;103061.56;5113722;28;20102;-46
2022/07/08 07:09:14;;;;;;;20.67;4.15;;;;;;;14.96;77.65;103060.75;5113266;28;20068;-47
2022/07/08 07:11:40;;;;;;;24.43;4.37;;;;;;;15.00;77.27;103060.06;5114121;28;20080;-46
2022/07/08 07:14:06;;;;;;;20.80;3.80;;;;;;;15.00;76.50;103072.16;5113665;28;20027;-47
2022/07/08 07:16:32;;;;;;;22.02;4.32;;;;;;;15.03;76.86;103068.03;5113354;28;20030;-46
2022/07/08 07:18:58;;;;;;;15.00;4.10;;;;;;;15.14;78.82;103061.63;5113885;28;20027;-47
2022/07/08 07:21:23;;;;;;;21.80;4.25;;;;;;;15.24;78.54;103062.03;5113247;28;20034;-47
2022/07/08 07:23:48;;;;;;;19.02;4.13;;;;;;;15.26;76.42;103066.50;5113413;28;20032;-46
2022/07/08 07:26:13;;;;;;;18.70;3.72;;;;;;;15.31;75.98;103066.69;5113584;28;20095;-46
2022/07/08 07:28:39;;;;;;;26.80;4.28;;;;;;;15.42;78.09;103062.88;5112995;28;20027;-48
2022/07/08 07:31:04;;;;;;;22.83;3.92;;;;;;;15.52;76.24;103068.47;5113626;28;20030;-45
2022/07/08 07:33:29;;;;;;;19.30;3.75;;;;;;;15.50;74.75;103065.81;5113643;28;20031;-46
2022/07/08 07:35:56;;;;;;;16.67;3.55;;;;;;;15.54;75.80;103065.13;5112609;28;20023;-47
2022/07/08 07:38:21;;;;;;;29.75;3.90;;;;;;;15.62;74.51;103058.56;5113481;28;20020;-46
2022/07/08 07:40:46;;;;;;;16.70;3.92;;;;;;;15.78;74.13;103061.84;5113576;28;20042;-47
2022/07/08 07:43:12;;;;;;;17.63;3.05;;;;;;;15.90;72.54;103067.59;5112644;28;20031;-46
2022/07/08 07:45:37;;;;;;;26.33;3.60;;;;;;;16.10;71.76;103065.84;5113540;28;20023;-44
2022/07/08 07:48:02;;;;;;;16.63;3.63;;;;;;;16.33;71.10;103065.03;5113442;28;20023;-46
2022/07/08 07:50:28;;;;;;;19.02;2.63;;;;;;;16.44;69.42;103062.03;5112333;28;20475;-46
2022/07/08 07:52:53;;;;;;;27.52;4.03;;;;;;;16.46;69.98;103064.69;5113298;28;20417;-48
2022/07/08 07:55:19;;;;;;;19.73;3.50;;;;;;;16.55;70.42;103056.38;5113177;28;20030;-47
2022/07/08 07:57:46;;;;;;;15.43;3.13;;;;;;;16.63;70.29;103062.81;5112864;28;20063;-48
2022/07/08 08:00:12;;;;;;;18.67;3.28;;;;;;;16.84;72.01;103061.88;5113321;28;20047;-48
2022/07/08 08:02:39;;;;;;;16.38;3.47;;;;;;;16.96;69.59;103054.56;5112810;28;20054;-47
2022/07/08 08:05:05;;;;;;;18.67;3.60;;;;;;;16.93;69.92;103062.25;5112568;28;20095;-46
2022/07/08 08:07:30;;;;;;;17.42;2.88;;;;;;;16.77;69.81;103068.53;5113099;28;20115;-47
2022/07/08 08:09:55;;;;;;;15.25;2.85;;;;;;;16.67;69.02;103064.69;5112981;28;20020;-48
2022/07/08 08:12:20;;;;;;;19.48;3.97;;;;;;;16.70;69.98;103063.94;5112390;28;20028;-46
2022/07/08 08:14:46;;;;;;;15.65;3.47;;;;;;;16.76;69.43;103065.06;5113393;28;20032;-47
2022/07/08 08:17:11;;;;;;;23.05;3.10;;;;;;;16.84;69.21;103067.09;5117186;28;20070;-47
2022/07/08 08:19:36;;;;;;;18.17;3.65;;;;;;;16.95;68.86;103061.50;5116699;28;20031;-48
2022/07/08 08:22:02;;;;;;;24.85;3.80;;;;;;;17.03;69.64;103067.00;5117156;28;20027;-47
2022/07/08 08:24:27;;;;;;;24.70;4.05;;;;;;;17.15;69.23;103070.91;5117199;28;20046;-44
2022/07/08 08:26:52;;;;;;;21.20;3.78;;;;;;;17.27;67.21;103066.13;5116901;28;20045;-47
2022/07/08 08:29:17;;;;;;;16.05;3.33;;;;;;;17.37;68.88;103076.06;5117010;28;20059;-47
2022/07/08 08:31:43;;;;;;;16.63;3.45;;;;;;;17.38;67.12;103077.84;5116802;28;20032;-46
2022/07/08 08:34:08;;;;;;;14.18;3.33;;;;;;;17.40;65.74;103071.00;5116630;28;20032;-45
2022/07/08 08:36:34;;;;;;;25.67;3.33;;;;;;;17.44;66.57;103083.31;5116979;28;20023;-46
2022/07/08 08:39:00;;;;;;;22.15;3.72;;;;;;;17.53;67.25;103074.03;5116207;28;20111;-45
2022/07/08 08:41:26;;;;;;;21.02;3.83;;;;;;;17.59;66.33;103066.44;5117085;28;20024;-47
2022/07/08 08:43:52;;;;;;;22.25;3.53;;;;;;;17.65;66.14;103065.75;5117049;28;20063;-47
2022/07/08 08:46:22;;;;;;;21.45;3.80;;;;;;;17.75;65.79;103071.38;5116073;28;20070;-47
2022/07/08 08:48:49;;;;;;;21.15;2.92;;;;;;;17.82;66.75;103063.75;5116966;28;20055;-47
2022/07/08 08:51:20;;;;;;;16.80;3.20;;;;;;;18.04;64.31;103061.09;5116680;28;20138;-44
2022/07/08 08:53:46;;;;;;;15.63;2.97;;;;;;;18.19;65.71;103052.91;5116415;28;20051;-45
2022/07/08 08:56:13;;;;;;;15.52;2.35;;;;;;;18.24;62.29;103063.47;5116530;28;20418;-48
2022/07/08 08:58:40;;;;;;;16.52;3.45;;;;;;;18.18;62.19;103055.44;5116195;28;20024;-45
2022/07/08 09:01:07;;;;;;;17.85;3.53;;;;;;;18.22;63.30;103055.59;5115996;28;20035;-47
2022/07/08 09:03:32;;;;;;;20.77;3.33;;;;;;;18.23;61.04;103057.38;5116412;28;20101;-47
2022/07/08 09:05:58;;;;;;;21.83;3.10;;;;;;;18.41;62.78;103054.47;5116251;28;20027;-47
2022/07/08 09:08:23;;;;;;;17.20;2.95;;;;;;;18.72;60.37;103054.56;5115557;28;20058;-47
2022/07/08 09:10:48;;;;;;;16.55;2.72;;;;;;;18.75;57.92;103049.44;5116634;28;20031;-47
2022/07/08 09:13:15;;;;;;;23.25;2.78;;;;;;;18.90;59.75;103054.25;5116124;28;20024;-47
2022/07/08 09:15:46;;;;;;;17.15;3.13;;;;;;;19.03;59.08;103051.19;5115833;28;20483;-48
2022/07/08 09:18:17;;;;;;;13.68;3.10;;;;;;;19.18;58.67;103052.47;5116172;28;20106;-46
2022/07/08 09:20:48;;;;;;;21.40;2.92;;;;;;;19.41;60.19;103055.75;5116118;28;20119;-47
2022/07/08 09:23:16;;;;;;;12.43;2.92;;;;;;;19.68;59.08;103055.63;5115709;28;20103;-47
2022/07/08 09:25:42;;;;;;;13.70;2.92;;;;;;;19.99;58.22;103051.22;5116232;28;20020;-48
2022/07/08 09:28:08;;;;;;;15.88;2.80;;;;;;;20.17;57.21;103052.56;5114301;28;20531;-46
2022/07/08 09:30:33;;;;;;;15.25;2.38;;;;;;;20.44;56.42;103051.44;5115992;28;20018;-46
2022/07/08 09:33:00;;;;;;;13.48;2.40;;;;;;;20.83;55.09;103053.25;5116002;28;20031;-48
2022/07/08 09:35:35;;;;;;;9.18;2.40;;;;;;;21.00;53.97;103057.09;5115413;28;20031;-46
2022/07/08 09:38:02;;;;;;;15.10;3.50;;;;;;;21.35;54.06;103051.69;5115936;28;20032;-48
2022/07/08 09:40:28;;;;;;;;;;;;;;;21.63;56.29;103049.66;5115882;28;20360;-48
2022/07/08 09:42:53;;;;;;;14.70;3.22;;;;;;;22.09;51.19;103043.44;5115378;28;19916;-48
2022/07/08 09:45:18;;;;;;;11.15;2.30;;;;;;;22.32;50.45;103036.84;5115654;28;20027;-48
2022/07/08 09:47:44;;;;;;;10.50;2.20;;;;;;;22.80;49.47;103044.53;5115412;28;20081;-48
2022/07/08 09:50:09;;;;;;;10.07;2.42;;;;;;;22.95;48.88;103047.34;5115153;28;20387;-45
2022/07/08 09:52:34;;;;;;;11.88;2.45;;;;;;;22.93;48.84;103045.56;5115713;28;20054;-48
2022/07/08 09:55:01;;;;;;;14.15;2.88;;;;;;;22.93;51.63;103051.72;5115324;28;20028;-46
2022/07/08 09:57:29;;;;;;;12.63;2.70;;;;;;;23.16;49.33;103056.41;5114938;28;20035;-48
2022/07/08 09:59:55;;;;;;;14.98;2.55;;;;;;;23.18;48.12;103046.81;5115372;28;20069;-47
2022/07/08 10:02:21;;;;;;;11.88;2.55;;;;;;;23.32;49.64;103050.47;5115205;28;20024;-48
2022/07/08 10:04:48;;;;;;;13.00;2.50;;;;;;;23.64;47.98;103052.59;5115080;28;20028;-48
2022/07/08 10:07:13;;;;;;;;;;;;;;;23.89;50.75;103057.22;5115610;28;20471;-49
2022/07/08 10:09:39;;;;;;;17.17;2.73;;;;;;;24.17;47.38;103059.22;5115138;28;19922;-48
2022/07/08 10:12:05;;;;;;;16.00;2.47;;;;;;;24.45;47.47;103058.53;5114661;28;20107;-49
2022/07/08 10:14:31;;;;;;;16.98;2.22;;;;;;;24.44;45.13;103057.66;5114972;28;20330;-47
2022/07/08 10:16:58;;;;;;;16.67;2.70;;;;;;;24.58;44.55;103055.13;5114940;28;20031;-49
2022/07/08 10:19:30;;;;;;;14.68;2.47;;;;;;;24.94;44.94;103061.47;5114552;28;20076;-49
2022/07/08 10:21:58;;;;;;;13.98;2.53;;;;;;;25.36;44.87;103055.50;5115201;28;20034;-47
2022/07/08 10:24:27;;;;;;;12.15;2.67;;;;;;;25.87;43.00;103063.53;5113939;28;20348;-49
2022/07/08 10:26:58;;;;;;;19.15;2.70;;;;;;;26.63;42.97;103059.94;5114897;28;20106;-48
2022/07/08 10:29:31;;;;;;;13.48;2.95;;;;;;;27.22;41.44;103066.81;5114918;28;20019;-48
2022/07/08 10:31:57;;;;;;;14.40;2.00;;;;;;;28.33;41.00;103065.13;5113974;28;20463;-46
2022/07/08 10:34:28;;;;;;;11.30;2.63;;;;;;;28.64;37.58;103060.41;5114701;28;20129;-47
2022/07/08 10:36:54;;;;;;;15.95;2.65;;;;;;;29.38;36.73;103048.84;5114660;28;20317;-48
2022/07/08 10:39:30;;;;;;;12.63;2.03;;;;;;;29.94;36.48;103052.44;5113838;28;20031;-47
2022/07/08 10:41:57;;;;;;;12.20;2.03;;;;;;;29.98;32.62;103054.16;5114952;28;20015;-49
2022/07/08 10:44:45;;;;;;;7.63;1.73;;;;;;;30.81;34.80;103049.06;5114714;28;20106;-45
2022/07/08 10:47:14;;;;;;;11.00;2.10;;;;;;;30.44;31.43;103053.31;5113991;28;20043;-49
2022/07/08 10:49:47;;;;;;;12.15;2.20;;;;;;;30.00;34.23;103047.03;5114452;28;20020;-48
2022/07/08 10:52:14;;;;;;;14.25;2.55;;;;;;;29.76;32.68;103049.19;5113927;28;20530;-49
2022/07/08 10:54:40;;;;;;;11.80;2.92;;;;;;;30.77;34.90;103050.91;5113979;28;20081;-49
2022/07/08 10:57:09;;;;;;;13.77;2.20;;;;;;;30.95;32.84;103052.31;5114435;28;20379;-49
2022/07/08 10:59:36;;;;;;;9.38;1.90;;;;;;;31.48;31.72;103057.34;5113488;28;20035;-47
2022/07/08 11:02:12;;;;;;;11.00;2.40;;;;;;;31.68;32.18;103051.56;5114245;28;20024;-48
2022/07/08 11:04:37;;;;;;;9.05;2.00;;;;;;;31.32;31.15;103042.63;5114129;28;20119;-45
2022/07/08 11:07:14;;;;;;;11.00;2.03;;;;;;;32.28;32.01;103040.25;5113855;28;20110;-48
2022/07/08 11:09:40;;;;;;;12.45;2.67;;;;;;;32.16;30.43;103046.75;5114195;28;20118;-50
2022/07/08 11:12:10;;;;;;;10.90;1.97;;;;;;;32.43;30.08;103045.16;5113844;28;20050;-48
2022/07/08 11:14:36;;;;;;;10.25;2.25;;;;;;;32.14;30.33;103043.28;5113491;28;20017;-48